Accueil
METAR-TAF:

METAR-TAF

Aéroports :

Aurillac, France

Aéroport d'Aurillac

latitude: 44-53N, longitude: 002-25E, altitude: 639 m

Observation

Le bulletin a été fait il y a 27 minutes, à 01:30 UTC
Vent 3 kt de ouest/nord-ouest
Température 18°C
Humidité 88%
Pression 1024 hPa
Visibilité 10 km ou plus
Ciel couvert à une hauteur de 2800 ft

METAR: LFLW 240130Z AUTO 30003KT 9999 OVC028 18/16 Q1024

Heure: 03:57 (01:57 UTC)

Prévision

Le bulletin a été fait il y a 11 heures et 57 minutes, à 14:00 UTC
Prévision valable du 23 à 15 UTC au 23 à 24 UTC
Vent 6 kt de nord-ouest
Visibilité 10 km ou plus
Nuages fragmentés à une hauteur de 900 ft
Evoluant progressivement
du 23 à 15 UTC au 23 à 17 UTC
Nuages épars à une hauteur de 1500 ft

TAF: LFLW 231400Z 2315/2324 31006KT 9999 BKN009 BECMG 2315/2317 SCT015

Observations et prévisions météorologiques de plus de 4000 aéroports (messages METAR et TAF).

Les stations disponibles sont représentées par des disques jaunes et rouges sur la carte.

Passer la souris dessus pour voir le nom de la station.

Cliquer dessus pour voir les observations et prévisions météorologiques.

Pour changer de carte: cliquez sur les boutons verts avec une croix noire pour zoomer, sur le bouton vert avec un tiret pour effectuer un zoom arrière, ou sur les flèches vertes pour les cartes adjacentes.


METAR-TAF: